createdAt,value
2018-08-10T00:00:48.466Z,99.90
2018-08-10T00:03:17.505Z,99.90
2018-08-10T00:05:46.086Z,99.90
2018-08-10T00:13:15.421Z,99.90
2018-08-10T00:15:44.566Z,99.90
2018-08-10T00:18:13.154Z,99.90
2018-08-10T00:20:41.750Z,99.90
2018-08-10T00:23:10.266Z,99.90
2018-08-10T00:25:38.837Z,99.90
2018-08-10T00:28:07.754Z,99.90
2018-08-10T00:30:36.250Z,99.90
2018-08-10T00:33:04.798Z,99.90
2018-08-10T00:35:33.682Z,99.90
2018-08-10T00:38:02.193Z,99.90
2018-08-10T00:40:30.754Z,99.90
2018-08-10T00:42:59.361Z,99.90
2018-08-10T00:45:27.934Z,99.90
2018-08-10T00:47:56.494Z,99.90
2018-08-10T00:50:25.082Z,99.90
2018-08-10T00:52:53.601Z,99.90
2018-08-10T00:55:22.156Z,99.90
2018-08-10T00:57:51.152Z,99.90
2018-08-10T01:00:26.301Z,99.90
2018-08-10T01:02:54.866Z,99.90
2018-08-10T01:05:24.858Z,99.90
2018-08-10T01:07:53.425Z,99.90
2018-08-10T01:10:21.998Z,99.90
2018-08-10T01:12:50.526Z,99.90
2018-08-10T01:15:19.080Z,99.90
2018-08-10T01:17:48.137Z,99.90
2018-08-10T01:20:24.149Z,99.90
2018-08-10T01:22:57.873Z,99.90
2018-08-10T01:25:27.365Z,99.90
2018-08-10T01:27:57.173Z,99.90
2018-08-10T01:30:26.955Z,99.90
2018-08-10T01:32:55.559Z,99.90
2018-08-10T01:35:24.895Z,99.90
2018-08-10T01:37:54.219Z,99.90
2018-08-10T01:40:22.810Z,99.90
2018-08-10T01:42:51.412Z,99.90
2018-08-10T01:45:20.385Z,99.90
2018-08-10T01:47:48.942Z,99.90
2018-08-10T01:50:18.717Z,99.90
2018-08-10T01:52:48.501Z,99.90
2018-08-10T01:55:17.467Z,99.90
2018-08-10T01:57:45.988Z,99.90
2018-08-10T02:05:16.164Z,99.90
2018-08-10T02:07:44.921Z,99.90
2018-08-10T02:10:15.034Z,99.90
2018-08-10T02:12:44.425Z,99.90
2018-08-10T02:15:14.961Z,99.90
2018-08-10T02:17:43.538Z,99.90
2018-08-10T02:20:14.863Z,99.90
2018-08-10T02:22:43.501Z,99.90
2018-08-10T02:25:13.325Z,99.90
2018-08-10T02:27:43.519Z,99.90
2018-08-10T02:30:13.302Z,99.90
2018-08-10T02:32:42.639Z,99.90
2018-08-10T02:35:11.354Z,99.90
2018-08-10T02:37:40.517Z,99.90
2018-08-10T02:40:18.178Z,99.90
2018-08-10T02:42:47.620Z,99.90
2018-08-10T02:50:09.423Z,99.90
2018-08-10T02:52:39.124Z,99.90
2018-08-10T02:55:08.597Z,99.90
2018-08-10T02:57:37.605Z,99.90
2018-08-10T03:00:11.241Z,99.90
2018-08-10T03:02:39.888Z,99.90
2018-08-10T03:05:09.162Z,99.90
2018-08-10T03:07:37.759Z,99.90
2018-08-10T03:10:07.393Z,99.90
2018-08-10T03:12:35.913Z,99.90
2018-08-10T03:15:05.938Z,99.90
2018-08-10T03:17:35.388Z,99.90
2018-08-10T03:20:04.571Z,99.90
2018-08-10T03:22:33.535Z,99.90
2018-08-10T03:25:03.101Z,99.90
2018-08-10T03:27:32.613Z,99.90
2018-08-10T03:30:01.278Z,99.90
2018-08-10T03:32:30.267Z,99.90
2018-08-10T03:34:58.768Z,99.90
2018-08-10T03:37:27.270Z,99.90
2018-08-10T03:39:55.864Z,99.90
2018-08-10T03:42:24.381Z,99.90
2018-08-10T03:44:52.906Z,99.90
2018-08-10T03:47:21.524Z,99.90
2018-08-10T03:49:50.178Z,99.90
2018-08-10T03:52:18.725Z,99.90
2018-08-10T03:54:47.523Z,99.90
2018-08-10T03:57:17.401Z,99.90
2018-08-10T03:59:45.868Z,99.90
2018-08-10T04:07:12.228Z,99.90
2018-08-10T04:09:40.745Z,99.90
2018-08-10T04:12:09.430Z,99.90
2018-08-10T04:14:38.433Z,99.90
2018-08-10T04:17:12.079Z,99.90
2018-08-10T04:19:41.746Z,99.90
2018-08-10T04:22:10.336Z,99.90
2018-08-10T04:24:39.562Z,99.90
2018-08-10T04:27:08.144Z,99.90
2018-08-10T04:29:36.733Z,99.90
2018-08-10T04:32:05.386Z,99.90
2018-08-10T04:34:34.250Z,99.90
2018-08-10T04:37:02.738Z,99.90
2018-08-10T04:39:31.249Z,99.90
2018-08-10T04:41:59.849Z,99.90
2018-08-10T04:44:28.427Z,99.90
2018-08-10T04:46:56.945Z,99.90
2018-08-10T04:49:25.739Z,99.90
2018-08-10T04:51:54.282Z,99.90
2018-08-10T04:54:22.748Z,99.90
2018-08-10T04:56:51.294Z,99.90
2018-08-10T04:59:19.846Z,99.90
2018-08-10T05:01:48.422Z,99.90
2018-08-10T05:04:17.398Z,99.90
2018-08-10T05:06:46.349Z,99.90
2018-08-10T05:14:09.328Z,99.90
2018-08-10T05:16:37.982Z,99.90
2018-08-10T05:19:06.523Z,99.90
2018-08-10T05:21:35.960Z,99.90
2018-08-10T05:24:04.748Z,99.90
2018-08-10T05:26:34.701Z,99.90
2018-08-10T05:29:03.378Z,99.90
2018-08-10T05:31:31.886Z,99.90
2018-08-10T05:34:00.398Z,99.90
2018-08-10T05:36:29.166Z,99.90
2018-08-10T05:38:57.700Z,99.90
2018-08-10T05:41:26.226Z,99.90
2018-08-10T05:43:54.784Z,99.90
2018-08-10T05:46:23.570Z,99.90
2018-08-10T05:48:52.764Z,99.90
2018-08-10T05:51:21.318Z,99.90
2018-08-10T05:53:49.943Z,99.90
2018-08-10T05:56:18.421Z,99.90
2018-08-10T05:58:47.299Z,99.90
2018-08-10T06:06:09.125Z,99.90
2018-08-10T06:08:37.616Z,99.90
2018-08-10T06:11:06.178Z,99.90
2018-08-10T06:13:34.694Z,99.90
2018-08-10T06:16:09.926Z,99.90
2018-08-10T06:18:38.850Z,99.90
2018-08-10T06:21:07.450Z,99.90
2018-08-10T06:23:36.015Z,99.90
2018-08-10T06:26:11.085Z,99.90
2018-08-10T06:28:41.015Z,99.90
2018-08-10T06:31:12.418Z,99.90
2018-08-10T06:33:40.925Z,99.90
2018-08-10T06:36:09.418Z,99.90
2018-08-10T06:38:38.467Z,99.90
2018-08-10T06:41:06.938Z,99.90
2018-08-10T06:43:35.445Z,99.90
2018-08-10T06:46:04.024Z,99.90
2018-08-10T06:48:32.533Z,99.90
2018-08-10T06:51:01.049Z,99.90
2018-08-10T06:53:29.588Z,99.90
2018-08-10T06:55:58.195Z,99.90
2018-08-10T06:58:27.526Z,99.90
2018-08-10T07:00:56.824Z,99.90
2018-08-10T07:03:25.261Z,99.90
2018-08-10T07:05:53.797Z,99.90
2018-08-10T07:08:22.360Z,99.90
2018-08-10T07:10:50.851Z,99.90
2018-08-10T07:13:19.702Z,99.90
2018-08-10T07:15:48.231Z,99.90
2018-08-10T07:18:17.929Z,99.90
2018-08-10T07:20:46.433Z,99.90
2018-08-10T07:28:11.866Z,99.90
2018-08-10T07:30:40.906Z,99.90
2018-08-10T07:33:10.607Z,99.90
2018-08-10T07:35:40.038Z,99.90
2018-08-10T07:38:09.069Z,99.90
2018-08-10T07:40:38.517Z,99.90
2018-08-10T07:43:07.170Z,99.90
2018-08-10T07:45:36.701Z,99.90
2018-08-10T07:48:05.499Z,99.90
2018-08-10T07:50:34.522Z,99.90
2018-08-10T07:53:03.086Z,99.90
2018-08-10T07:55:31.593Z,99.90
2018-08-10T07:58:00.141Z,99.90
2018-08-10T08:00:28.693Z,99.90
2018-08-10T08:02:57.208Z,99.90
2018-08-10T08:05:25.794Z,99.90
2018-08-10T08:07:54.325Z,99.90
2018-08-10T08:10:23.043Z,99.90
2018-08-10T08:12:51.999Z,99.90
2018-08-10T08:15:20.522Z,99.90
2018-08-10T08:17:49.226Z,99.90
2018-08-10T08:20:17.810Z,99.90
2018-08-10T08:22:46.354Z,99.90
2018-08-10T08:30:11.501Z,99.90
2018-08-10T08:32:40.650Z,99.90
2018-08-10T08:35:11.401Z,99.90
2018-08-10T08:37:40.051Z,99.90
2018-08-10T08:40:25.885Z,99.90
2018-08-10T08:42:54.596Z,99.90
2018-08-10T08:45:57.324Z,99.90
2018-08-10T08:48:27.254Z,99.90
2018-08-10T08:50:58.086Z,99.90
2018-08-10T08:53:27.343Z,99.90
2018-08-10T08:56:02.301Z,99.90
2018-08-10T08:58:31.395Z,99.90
2018-08-10T09:01:00.212Z,99.90
2018-08-10T09:03:40.587Z,99.90
2018-08-10T09:06:09.447Z,99.90
2018-08-10T09:08:38.178Z,99.90
2018-08-10T09:11:09.194Z,99.90
2018-08-10T09:14:44.062Z,99.90
2018-08-10T09:17:12.792Z,99.90
2018-08-10T09:19:42.066Z,99.90
2018-08-10T09:22:11.186Z,99.90
2018-08-10T09:24:40.394Z,99.90
2018-08-10T09:27:08.950Z,99.90
2018-08-10T09:29:37.480Z,99.90
2018-08-10T09:32:06.886Z,99.90
2018-08-10T09:34:35.738Z,99.90
2018-08-10T09:37:04.730Z,99.90
2018-08-10T09:39:33.355Z,99.90
2018-08-10T09:42:03.065Z,99.90
2018-08-10T09:44:32.149Z,99.90
2018-08-10T09:47:01.413Z,99.90
2018-08-10T09:49:32.976Z,99.90
2018-08-10T09:52:01.867Z,99.90
2018-08-10T09:54:30.639Z,99.90
2018-08-10T09:57:05.371Z,99.90
2018-08-10T09:59:34.530Z,99.90
2018-08-10T10:02:09.171Z,99.90
2018-08-10T10:04:38.321Z,99.90
2018-08-10T10:07:06.844Z,99.90
2018-08-10T10:09:35.373Z,99.90
2018-08-10T10:12:04.161Z,99.90
2018-08-10T10:14:33.370Z,99.90
2018-08-10T10:17:01.997Z,99.90
2018-08-10T10:19:31.606Z,99.90
2018-08-10T10:22:00.284Z,99.90
2018-08-10T10:24:29.091Z,99.90
2018-08-10T10:26:58.300Z,99.90
2018-08-10T10:29:26.886Z,99.90
2018-08-10T10:31:56.709Z,99.90
2018-08-10T10:34:25.286Z,99.90
2018-08-10T10:36:54.190Z,99.90
2018-08-10T10:39:22.762Z,99.90
2018-08-10T10:41:51.414Z,99.90
2018-08-10T10:44:20.011Z,99.90
2018-08-10T10:46:48.777Z,99.90
2018-08-10T10:49:18.278Z,99.90
2018-08-10T10:51:47.198Z,99.90
2018-08-10T10:59:10.141Z,99.90
2018-08-10T11:01:39.894Z,99.90
2018-08-10T11:04:08.474Z,99.90
2018-08-10T11:06:37.106Z,99.90
2018-08-10T11:09:07.235Z,99.90
2018-08-10T11:11:35.754Z,99.90
2018-08-10T11:14:04.709Z,99.00
2018-08-10T11:16:33.267Z,99.70
2018-08-10T11:19:02.165Z,99.90
2018-08-10T11:21:31.068Z,99.90
2018-08-10T11:24:00.071Z,99.90
2018-08-10T11:26:35.206Z,99.40
2018-08-10T11:29:03.819Z,98.90
2018-08-10T11:31:32.358Z,99.90
2018-08-10T11:34:00.903Z,99.90
2018-08-10T11:36:29.388Z,99.90
2018-08-10T11:38:58.136Z,99.90
2018-08-10T11:41:26.679Z,99.50
2018-08-10T11:43:55.201Z,99.90
2018-08-10T11:46:23.734Z,99.90
2018-08-10T11:48:57.331Z,99.80
2018-08-10T11:51:26.072Z,99.90
2018-08-10T11:53:55.089Z,99.90
2018-08-10T11:56:23.667Z,99.90
2018-08-10T11:58:52.247Z,99.90
2018-08-10T12:01:21.456Z,99.80
2018-08-10T12:03:50.264Z,99.90
2018-08-10T12:06:18.887Z,98.10
2018-08-10T12:08:47.697Z,97.60
2018-08-10T12:16:09.891Z,96.60
2018-08-10T12:18:39.058Z,98.30
2018-08-10T12:21:07.890Z,97.00
2018-08-10T12:23:36.563Z,94.60
2018-08-10T12:26:05.094Z,93.90
2018-08-10T12:28:33.689Z,95.00
2018-08-10T12:31:02.459Z,94.50
2018-08-10T12:33:32.711Z,94.00
2018-08-10T12:36:01.259Z,93.30
2018-08-10T12:38:30.778Z,93.00
2018-08-10T12:40:59.804Z,90.60
2018-08-10T12:43:29.073Z,92.20
2018-08-10T12:45:58.549Z,94.20
2018-08-10T12:48:27.121Z,95.40
2018-08-10T12:50:55.766Z,95.40
2018-08-10T12:53:24.479Z,96.30
2018-08-10T12:55:53.107Z,95.60
2018-08-10T12:58:22.291Z,95.60
2018-08-10T13:00:52.273Z,97.50
2018-08-10T13:03:20.937Z,94.70
2018-08-10T13:05:49.477Z,94.40
2018-08-10T13:08:18.060Z,96.10
2018-08-10T13:10:46.838Z,97.40
2018-08-10T13:18:09.176Z,96.10
2018-08-10T13:20:39.013Z,96.60
2018-08-10T13:23:07.539Z,96.20
2018-08-10T13:25:36.130Z,94.90
2018-08-10T13:28:04.657Z,96.00
2018-08-10T13:30:33.228Z,97.40
2018-08-10T13:33:01.769Z,95.70
2018-08-10T13:35:30.494Z,95.00
2018-08-10T13:37:58.939Z,96.00
2018-08-10T13:40:28.121Z,95.70
2018-08-10T13:42:59.756Z,96.00
2018-08-10T13:45:28.437Z,95.70
2018-08-10T13:47:57.083Z,95.90
2018-08-10T13:50:25.663Z,97.40
2018-08-10T13:52:54.333Z,95.90
2018-08-10T13:55:23.307Z,94.70
2018-08-10T13:57:52.395Z,95.40
2018-08-10T14:00:22.152Z,94.20
2018-08-10T14:02:54.442Z,95.20
2018-08-10T14:05:23.678Z,94.70
2018-08-10T14:07:52.942Z,94.70
2018-08-10T14:10:21.494Z,94.30
2018-08-10T14:12:50.045Z,94.30
2018-08-10T14:15:19.468Z,94.30
2018-08-10T14:17:48.172Z,93.70
2018-08-10T14:20:17.821Z,94.20
2018-08-10T14:22:46.437Z,95.40
2018-08-10T14:30:15.093Z,93.80
2018-08-10T14:32:43.733Z,94.10
2018-08-10T14:35:12.773Z,93.40
2018-08-10T14:37:41.328Z,93.70
2018-08-10T14:40:11.849Z,93.80
2018-08-10T14:42:40.411Z,93.90
2018-08-10T14:45:12.404Z,94.80
2018-08-10T14:47:41.006Z,95.60
2018-08-10T14:50:11.645Z,94.70
2018-08-10T14:52:40.723Z,94.80
2018-08-10T14:55:11.449Z,94.20
2018-08-10T14:57:40.158Z,93.30
2018-08-10T15:00:13.735Z,93.40
2018-08-10T15:02:42.383Z,94.30
2018-08-10T15:05:11.023Z,95.10
2018-08-10T15:07:39.573Z,95.70
2018-08-10T15:10:10.321Z,95.80
2018-08-10T15:12:39.362Z,96.60
2018-08-10T15:15:10.273Z,96.30
2018-08-10T15:17:38.891Z,97.00
2018-08-10T15:20:09.281Z,96.80
2018-08-10T15:22:38.021Z,96.40
2018-08-10T15:25:07.927Z,96.40
2018-08-10T15:27:36.481Z,96.40
2018-08-10T15:30:06.688Z,96.90
2018-08-10T15:32:35.226Z,97.00
2018-08-10T15:35:04.117Z,97.20
2018-08-10T15:37:32.713Z,96.30
2018-08-10T15:40:05.632Z,96.50
2018-08-10T15:42:34.913Z,96.70
2018-08-10T15:45:03.733Z,96.30
2018-08-10T15:47:32.784Z,96.80
2018-08-10T15:50:02.126Z,97.20
2018-08-10T15:52:30.665Z,97.10
2018-08-10T15:55:00.697Z,97.60
2018-08-10T15:57:29.769Z,97.90
2018-08-10T16:00:00.055Z,98.60
2018-08-10T16:02:29.023Z,98.10
2018-08-10T16:04:59.499Z,98.50
2018-08-10T16:07:28.531Z,98.70
2018-08-10T16:09:57.062Z,98.60
2018-08-10T16:12:25.979Z,99.20
2018-08-10T16:14:54.536Z,99.40
2018-08-10T16:17:23.148Z,99.70
2018-08-10T16:19:51.905Z,99.90
2018-08-10T16:22:21.049Z,99.90
2018-08-10T16:24:49.618Z,99.90
2018-08-10T16:27:18.432Z,99.90
2018-08-10T16:29:47.491Z,99.90
2018-08-10T16:32:18.194Z,99.90
2018-08-10T16:34:46.905Z,99.90
2018-08-10T16:42:09.187Z,99.90
2018-08-10T16:44:37.867Z,99.90
2018-08-10T16:47:07.719Z,99.90
2018-08-10T16:49:37.003Z,99.90
2018-08-10T16:52:05.914Z,99.90
2018-08-10T16:54:35.042Z,99.90
2018-08-10T16:57:03.830Z,99.90
2018-08-10T16:59:32.521Z,99.90
2018-08-10T17:02:02.685Z,99.90
2018-08-10T17:04:31.448Z,99.90
2018-08-10T17:07:00.321Z,99.90
2018-08-10T17:09:30.010Z,99.90
2018-08-10T17:12:00.130Z,99.90
2018-08-10T17:14:28.725Z,99.90
2018-08-10T17:16:57.294Z,99.90
2018-08-10T17:19:26.750Z,99.90
2018-08-10T17:21:55.878Z,99.90
2018-08-10T17:24:25.472Z,99.90
2018-08-10T17:26:55.500Z,99.90
2018-08-10T17:29:24.286Z,99.90
2018-08-10T17:31:53.338Z,99.90
2018-08-10T17:34:22.297Z,99.90
2018-08-10T17:36:50.861Z,99.90
2018-08-10T17:39:19.471Z,99.90
2018-08-10T17:41:48.082Z,99.90
2018-08-10T17:44:17.560Z,99.90
2018-08-10T17:46:46.176Z,99.90
2018-08-10T17:54:13.718Z,99.90
2018-08-10T17:56:42.849Z,99.90
2018-08-10T17:59:12.005Z,99.90
2018-08-10T18:01:40.890Z,99.90
2018-08-10T18:04:09.474Z,99.90
2018-08-10T18:06:38.225Z,99.90
2018-08-10T18:09:11.594Z,99.90
2018-08-10T18:11:40.338Z,99.90
2018-08-10T18:14:09.505Z,99.90
2018-08-10T18:16:38.166Z,99.90
2018-08-10T18:19:06.767Z,99.90
2018-08-10T18:21:36.287Z,99.90
2018-08-10T18:24:05.358Z,99.90
2018-08-10T18:26:33.843Z,99.90
2018-08-10T18:29:02.538Z,99.90
2018-08-10T18:31:31.160Z,99.90
2018-08-10T18:33:59.769Z,99.90
2018-08-10T18:36:34.524Z,99.90
2018-08-10T18:39:03.330Z,99.90
2018-08-10T18:41:32.071Z,99.90
2018-08-10T18:44:00.759Z,99.90
2018-08-10T18:46:29.497Z,99.90
2018-08-10T18:48:58.239Z,99.90
2018-08-10T18:51:26.801Z,99.90
2018-08-10T18:53:56.403Z,99.90
2018-08-10T18:56:25.917Z,99.90
2018-08-10T18:58:56.014Z,99.90
2018-08-10T19:01:28.795Z,99.90
2018-08-10T19:03:57.358Z,99.90
2018-08-10T19:06:26.166Z,99.90
2018-08-10T19:08:54.900Z,99.90
2018-08-10T19:11:23.570Z,99.90
2018-08-10T19:13:52.291Z,99.90
2018-08-10T19:16:20.898Z,99.90
2018-08-10T19:18:49.549Z,99.90
2018-08-10T19:21:18.469Z,99.90
2018-08-10T19:23:47.974Z,99.90
2018-08-10T19:26:17.613Z,99.90
2018-08-10T19:28:46.265Z,99.90
2018-08-10T19:31:52.256Z,99.90
2018-08-10T19:34:20.861Z,99.90
2018-08-10T19:36:49.421Z,99.90
2018-08-10T19:39:18.283Z,99.90
2018-08-10T19:41:47.157Z,99.90
2018-08-10T19:44:19.594Z,99.90
2018-08-10T19:46:48.871Z,99.90
2018-08-10T19:49:17.517Z,99.90
2018-08-10T19:51:46.796Z,99.90
2018-08-10T19:59:08.899Z,99.90
2018-08-10T20:01:37.536Z,99.90
2018-08-10T20:04:06.720Z,99.90
2018-08-10T20:06:35.401Z,99.90
2018-08-10T20:09:05.626Z,99.90
2018-08-10T20:11:34.194Z,99.90
2018-08-10T20:14:03.237Z,99.90
2018-08-10T20:16:32.149Z,99.90
2018-08-10T20:19:00.678Z,99.90
2018-08-10T20:21:29.738Z,99.90
2018-08-10T20:23:58.386Z,99.90
2018-08-10T20:26:29.156Z,99.90
2018-08-10T20:28:57.770Z,99.90
2018-08-10T20:31:26.352Z,99.90
2018-08-10T20:33:55.004Z,99.90
2018-08-10T20:36:24.069Z,99.90
2018-08-10T20:38:52.876Z,99.90
2018-08-10T20:41:22.493Z,99.90
2018-08-10T20:43:51.399Z,99.90
2018-08-10T20:46:19.981Z,99.90
2018-08-10T20:48:48.556Z,99.90
2018-08-10T20:51:20.570Z,99.90
2018-08-10T20:53:49.086Z,99.90
2018-08-10T20:56:17.609Z,99.90
2018-08-10T20:58:46.149Z,99.90
2018-08-10T21:06:16.236Z,99.90
2018-08-10T21:08:44.760Z,99.90
2018-08-10T21:11:13.461Z,99.90
2018-08-10T21:13:42.058Z,99.90
2018-08-10T21:16:11.731Z,99.90
2018-08-10T21:18:40.278Z,99.90
2018-08-10T21:21:08.870Z,99.90
2018-08-10T21:23:37.438Z,99.90
2018-08-10T21:26:05.952Z,99.90
2018-08-10T21:28:34.529Z,99.90
2018-08-10T21:31:03.858Z,99.90
2018-08-10T21:33:33.164Z,99.90
2018-08-10T21:36:01.783Z,99.90
2018-08-10T21:38:30.290Z,99.90
2018-08-10T21:40:58.793Z,99.90
2018-08-10T21:43:27.381Z,99.90
2018-08-10T21:45:55.879Z,99.90
2018-08-10T21:48:24.415Z,99.90
2018-08-10T21:50:53.255Z,99.90
2018-08-10T21:53:21.767Z,99.90
2018-08-10T21:55:50.322Z,99.90
2018-08-10T21:58:18.878Z,99.90
2018-08-10T22:00:53.228Z,99.90
2018-08-10T22:03:23.289Z,99.90
2018-08-10T22:05:51.799Z,99.90
2018-08-10T22:08:21.317Z,99.90
2018-08-10T22:10:50.925Z,99.90
2018-08-10T22:13:25.431Z,99.90
2018-08-10T22:15:59.384Z,99.90
2018-08-10T22:18:33.269Z,99.90
2018-08-10T22:21:02.314Z,99.90
2018-08-10T22:23:30.845Z,99.90
2018-08-10T22:25:59.968Z,99.90
2018-08-10T22:28:28.939Z,99.90
2018-08-10T22:30:57.541Z,99.90
2018-08-10T22:33:26.125Z,99.90
2018-08-10T22:35:54.689Z,99.90
2018-08-10T22:38:23.197Z,99.90
2018-08-10T22:40:51.741Z,99.90
2018-08-10T22:43:20.383Z,99.90
2018-08-10T22:45:49.526Z,99.90
